Rotselaar, Belgium
Current Conditions -  °F | °C
As of 9:50 AM on Sunday 21 Dec 2014 (Local Time) from EBBR Reporting Station
Broken Clouds Broken Clouds  
Wind Chill: 36°   Ceiling: 4000
Heat Index: 43°   Visibility: 6mi
Dew Point: 37°   Wind: 13mph
Humidity: 81%   Direction: 220°SW
Pressure: 30.42"   Gusts: NA
Location:  50.95°N, 4.72°E
Report Text: EBBR 210850Z 22011KT 9999 BKN040 06/03 Q1030 NOSIG
Loading
Personal Weather Stations






























Interactive Weather Map New forecast layout! Learn more

10-Day Weather Forecast

Advertisements
Track Severe Weather on mobile